Terminal Aerodrome Forecast
Issued by NWS

Home | Current Version | Previous Version | Text Only | Print | Product List | Glossary On
Versions: 1 2 3 4 5 6 7 8 9 10 11 12 13 14
000
FTUS42 KGSP 250500 CCA
TAFHKY
TAF COR
KHKY 250542Z 2506/2606 00000KT P6SM BKN250
     FM251200 00000KT P6SM -SHRA OVC007
     FM251500 19010G15KT 6SM -SHRA SCT014 OVC025 PROB30 2515/2520
      4SM TSRA OVC013CB
     FM252000 27012G22KT P6SM VCTS SCT040CB BKN050
     FM252300 28010KT P6SM FEW250
     FM260500 31006KT P6SM SKC=

USA.gov is the U.S. government's official web portal to all federal, state and local government web resources and services.